createdAt,value
2022-09-07T00:01:05.946Z,56.07
2022-09-07T00:03:35.195Z,55.76
2022-09-07T00:06:11.215Z,55.95
2022-09-07T00:08:43.754Z,56.06
2022-09-07T00:11:16.040Z,56.18
2022-09-07T00:13:46.727Z,56.35
2022-09-07T00:16:24.975Z,56.52
2022-09-07T00:19:01.331Z,56.75
2022-09-07T00:21:29.935Z,57.22
2022-09-07T00:23:57.801Z,57.35
2022-09-07T00:26:30.951Z,57.35
2022-09-07T00:29:04.285Z,57.26
2022-09-07T00:31:32.241Z,57.59
2022-09-07T00:34:02.189Z,57.88
2022-09-07T00:36:30.532Z,57.68
2022-09-07T00:38:58.665Z,57.92
2022-09-07T00:41:26.800Z,58.18
2022-09-07T00:43:58.829Z,57.93
2022-09-07T00:46:32.127Z,58.04
2022-09-07T00:49:22.834Z,57.98
2022-09-07T00:52:00.224Z,57.67
2022-09-07T00:54:43.873Z,57.67
2022-09-07T00:57:12.178Z,57.62
2022-09-07T00:59:48.634Z,57.63
2022-09-07T01:02:18.186Z,57.40
2022-09-07T01:04:53.737Z,57.47
2022-09-07T01:07:21.302Z,57.66
2022-09-07T01:09:50.994Z,57.80
2022-09-07T01:12:18.463Z,57.97
2022-09-07T01:14:52.037Z,57.91
2022-09-07T01:17:44.788Z,58.10
2022-09-07T01:20:45.867Z,58.19
2022-09-07T01:24:20.915Z,59.05
2022-09-07T01:26:51.909Z,59.42
2022-09-07T01:29:34.450Z,59.33
2022-09-07T01:32:37.455Z,59.10
2022-09-07T01:35:19.136Z,59.06
2022-09-07T01:38:23.731Z,59.25
2022-09-07T01:41:14.838Z,59.36
2022-09-07T01:43:55.483Z,59.50
2022-09-07T01:46:46.319Z,59.81
2022-09-07T01:49:54.720Z,60.75
2022-09-07T01:52:42.445Z,61.04
2022-09-07T01:55:34.139Z,61.31
2022-09-07T01:58:26.497Z,61.47
2022-09-07T02:01:03.300Z,60.91
2022-09-07T02:04:01.090Z,61.57
2022-09-07T02:06:40.233Z,61.51
2022-09-07T02:09:29.342Z,61.56
2022-09-07T02:11:57.776Z,61.61
2022-09-07T02:14:43.102Z,61.67
2022-09-07T02:17:37.380Z,61.97
2022-09-07T02:20:27.064Z,61.78
2022-09-07T02:23:02.368Z,61.58
2022-09-07T02:25:40.384Z,61.36
2022-09-07T02:28:18.409Z,61.59
2022-09-07T02:30:46.306Z,61.98
2022-09-07T02:33:14.299Z,62.26
2022-09-07T02:35:41.922Z,62.64
2022-09-07T02:38:10.657Z,62.28
2022-09-07T02:40:38.768Z,61.95
2022-09-07T02:43:11.758Z,62.83
2022-09-07T02:46:33.608Z,64.46
2022-09-07T02:49:43.966Z,64.28
2022-09-07T02:52:30.597Z,64.07
2022-09-07T02:55:54.422Z,63.86
2022-09-07T02:58:32.446Z,63.28
2022-09-07T03:01:09.844Z,63.16
2022-09-07T03:04:14.655Z,62.83
2022-09-07T03:06:59.384Z,62.75
2022-09-07T03:09:36.611Z,62.65
2022-09-07T03:12:06.046Z,62.91
2022-09-07T03:14:36.247Z,63.04
2022-09-07T03:17:03.752Z,62.83
2022-09-07T03:19:30.952Z,62.90
2022-09-07T03:21:58.494Z,63.32
2022-09-07T03:24:25.868Z,63.19
2022-09-07T03:26:53.311Z,63.22
2022-09-07T03:29:20.840Z,62.98
2022-09-07T03:31:48.195Z,63.87
2022-09-07T03:34:17.267Z,64.52
2022-09-07T03:36:44.801Z,64.22
2022-09-07T03:39:14.006Z,64.20
2022-09-07T03:41:41.350Z,64.45
2022-09-07T03:44:09.433Z,64.64
2022-09-07T03:46:36.707Z,64.76
2022-09-07T03:49:04.652Z,64.76
2022-09-07T03:51:32.207Z,64.58
2022-09-07T03:54:00.498Z,64.31
2022-09-07T03:56:27.899Z,64.53
2022-09-07T03:58:56.228Z,64.49
2022-09-07T04:01:26.583Z,64.34
2022-09-07T04:04:01.964Z,64.04
2022-09-07T04:06:31.421Z,64.39
2022-09-07T04:09:07.802Z,64.13
2022-09-07T04:11:35.913Z,63.71
2022-09-07T04:14:03.326Z,63.49
2022-09-07T04:16:30.638Z,63.43
2022-09-07T04:18:59.392Z,63.47
2022-09-07T04:21:30.392Z,63.64
2022-09-07T04:23:58.682Z,63.86
2022-09-07T04:26:30.418Z,63.78
2022-09-07T04:28:59.442Z,64.23
2022-09-07T04:31:27.221Z,64.08
2022-09-07T04:33:55.636Z,64.03
2022-09-07T04:36:24.980Z,63.69
2022-09-07T04:39:03.126Z,63.65
2022-09-07T04:41:32.724Z,63.34
2022-09-07T04:44:03.062Z,62.80
2022-09-07T04:46:35.159Z,62.81
2022-09-07T04:49:08.651Z,62.96
2022-09-07T04:51:38.077Z,62.80
2022-09-07T04:54:06.427Z,62.95
2022-09-07T04:56:34.069Z,62.90
2022-09-07T04:59:02.918Z,62.71
2022-09-07T05:01:31.247Z,63.32
2022-09-07T05:04:01.569Z,63.27
2022-09-07T05:06:29.611Z,63.15
2022-09-07T05:08:59.388Z,63.03
2022-09-07T05:11:29.777Z,62.94
2022-09-07T05:14:00.129Z,62.64
2022-09-07T05:16:29.113Z,62.57
2022-09-07T05:19:00.205Z,62.48
2022-09-07T05:21:34.329Z,62.08
2022-09-07T05:24:03.048Z,61.91
2022-09-07T05:26:35.005Z,62.12
2022-09-07T05:31:53.651Z,61.14
2022-09-07T05:37:09.236Z,61.17
2022-09-07T05:39:36.630Z,61.02
2022-09-07T05:42:04.313Z,60.94
2022-09-07T05:44:47.379Z,60.50
2022-09-07T05:47:15.147Z,60.44
2022-09-07T05:49:42.813Z,60.03
2022-09-07T05:52:10.917Z,59.77
2022-09-07T05:54:38.197Z,59.53
2022-09-07T05:57:07.423Z,59.82
2022-09-07T05:59:35.304Z,59.87
2022-09-07T06:02:02.820Z,59.45
2022-09-07T06:04:30.426Z,59.21
2022-09-07T06:07:21.165Z,59.24
2022-09-07T06:12:32.568Z,59.35
2022-09-07T06:15:01.623Z,59.81
2022-09-07T06:17:31.218Z,59.59
2022-09-07T06:19:58.566Z,59.21
2022-09-07T06:22:30.549Z,59.16
2022-09-07T06:24:58.548Z,58.51
2022-09-07T06:27:25.943Z,57.74
2022-09-07T06:29:53.415Z,56.66
2022-09-07T06:35:09.074Z,54.56
2022-09-07T06:37:36.415Z,54.67
2022-09-07T06:40:04.416Z,54.20
2022-09-07T06:42:32.219Z,54.17
2022-09-07T06:44:59.506Z,54.58
2022-09-07T06:47:26.911Z,54.11
2022-09-07T06:49:54.464Z,51.39
2022-09-07T06:52:22.041Z,46.10
2022-09-07T06:55:04.927Z,40.93
2022-09-07T06:57:32.716Z,37.29
2022-09-07T07:00:00.071Z,34.80
2022-09-07T07:02:27.416Z,32.75
2022-09-07T07:04:54.870Z,30.24
2022-09-07T07:07:22.175Z,29.87
2022-09-07T07:09:51.069Z,28.12
2022-09-07T07:14:45.318Z,25.11
2022-09-07T07:17:13.471Z,24.15
2022-09-07T07:19:42.408Z,23.63
2022-09-07T07:24:57.620Z,22.15
2022-09-07T07:27:25.056Z,20.87
2022-09-07T07:29:55.402Z,20.50
2022-09-07T07:32:22.920Z,20.13
2022-09-07T07:34:50.224Z,19.31
2022-09-07T07:37:17.925Z,18.79
2022-09-07T07:42:34.149Z,17.49
2022-09-07T07:47:53.686Z,17.10
2022-09-07T07:50:36.501Z,16.99
2022-09-07T07:55:51.704Z,15.03
2022-09-07T07:58:19.723Z,14.69
2022-09-07T08:00:54.642Z,13.72
2022-09-07T08:03:24.770Z,13.79
2022-09-07T08:05:52.833Z,13.75
2022-09-07T08:08:21.001Z,13.20
2022-09-07T08:10:48.478Z,12.47
2022-09-07T08:13:16.812Z,12.47
2022-09-07T08:15:47.309Z,11.83
2022-09-07T08:18:17.624Z,12.05
2022-09-07T08:20:45.160Z,11.43
2022-09-07T08:23:12.782Z,11.04
2022-09-07T08:25:58.389Z,10.50
2022-09-07T08:28:32.125Z,10.50
2022-09-07T08:31:04.952Z,10.21
2022-09-07T08:33:32.598Z,10.05
2022-09-07T08:36:03.450Z,9.81
2022-09-07T08:38:33.325Z,9.48
2022-09-07T08:41:59.646Z,9.19
2022-09-07T08:44:53.313Z,8.42
2022-09-07T08:47:49.346Z,8.79
2022-09-07T08:50:58.886Z,8.50
2022-09-07T08:53:29.158Z,8.46
2022-09-07T08:56:04.841Z,8.73
2022-09-07T08:58:53.343Z,8.47
2022-09-07T09:01:37.937Z,8.11
2022-09-07T09:04:34.890Z,8.07
2022-09-07T09:07:51.021Z,8.08
2022-09-07T09:10:54.617Z,7.42
2022-09-07T09:13:52.308Z,7.23
2022-09-07T09:16:32.972Z,7.71
2022-09-07T09:19:31.236Z,7.41
2022-09-07T09:22:21.418Z,7.21
2022-09-07T09:25:25.483Z,6.86
2022-09-07T09:27:52.853Z,6.72
2022-09-07T09:30:23.485Z,6.56
2022-09-07T09:33:27.460Z,6.18
2022-09-07T09:36:01.339Z,6.20
2022-09-07T09:38:33.365Z,6.54
2022-09-07T09:41:12.414Z,6.87
2022-09-07T09:43:51.850Z,6.37
2022-09-07T09:46:36.176Z,6.31
2022-09-07T09:49:37.975Z,5.68
2022-09-07T09:52:42.981Z,5.67
2022-09-07T10:01:29.551Z,5.11
2022-09-07T10:03:59.416Z,5.17
2022-09-07T10:06:30.136Z,5.98
2022-09-07T10:09:02.106Z,5.13
2022-09-07T10:12:05.581Z,5.41
2022-09-07T10:14:46.849Z,5.20
2022-09-07T10:17:31.960Z,5.85
2022-09-07T10:20:21.705Z,5.33
2022-09-07T10:22:51.837Z,5.44
2022-09-07T10:25:34.932Z,5.40
2022-09-07T10:28:22.439Z,4.86
2022-09-07T10:31:14.085Z,5.07
2022-09-07T10:34:28.186Z,5.07
2022-09-07T10:37:07.004Z,4.93
2022-09-07T10:40:00.228Z,4.45
2022-09-07T10:43:20.757Z,4.60
2022-09-07T10:46:56.419Z,5.31
2022-09-07T10:49:22.424Z,4.66
2022-09-07T10:52:14.718Z,4.87
2022-09-07T10:55:07.946Z,5.03
2022-09-07T10:58:01.874Z,5.45
2022-09-07T11:00:58.347Z,5.12
2022-09-07T11:04:14.561Z,4.46
2022-09-07T11:06:48.342Z,4.59
2022-09-07T11:09:34.051Z,4.19
2022-09-07T11:12:08.165Z,4.24
2022-09-07T11:14:52.877Z,4.46
2022-09-07T11:17:30.047Z,3.78
2022-09-07T11:20:34.283Z,3.68
2022-09-07T11:23:50.552Z,4.34
2022-09-07T11:26:32.229Z,3.73
2022-09-07T11:29:36.496Z,3.84
2022-09-07T11:32:23.032Z,3.56
2022-09-07T11:34:55.524Z,3.30
2022-09-07T11:37:59.656Z,3.32
2022-09-07T11:41:09.341Z,4.01
2022-09-07T11:43:45.642Z,3.44
2022-09-07T11:46:26.740Z,3.14
2022-09-07T11:48:58.492Z,3.34
2022-09-07T11:51:54.202Z,3.10
2022-09-07T11:54:27.020Z,3.65
2022-09-07T11:57:12.657Z,3.33
2022-09-07T12:00:12.162Z,3.88
2022-09-07T12:03:23.768Z,3.14
2022-09-07T12:06:05.864Z,3.52
2022-09-07T12:08:51.368Z,4.08
2022-09-07T12:11:24.615Z,4.07
2022-09-07T12:14:28.417Z,4.04
2022-09-07T12:17:12.821Z,3.69
2022-09-07T12:19:40.444Z,3.54
2022-09-07T12:22:21.572Z,3.83
2022-09-07T12:24:53.901Z,4.14
2022-09-07T12:27:21.010Z,3.56
2022-09-07T12:29:52.816Z,3.84
2022-09-07T12:32:57.122Z,4.09
2022-09-07T12:35:28.991Z,4.00
2022-09-07T12:38:19.182Z,4.51
2022-09-07T12:40:50.000Z,4.03
2022-09-07T12:43:17.387Z,4.26
2022-09-07T12:45:47.409Z,4.29
2022-09-07T12:48:17.477Z,4.65
2022-09-07T12:50:56.961Z,4.90
2022-09-07T12:53:57.727Z,5.00
2022-09-07T12:56:37.698Z,4.67
2022-09-07T12:59:49.527Z,4.62
2022-09-07T13:02:59.358Z,5.30
2022-09-07T13:05:56.212Z,5.24
2022-09-07T13:08:50.610Z,4.79
2022-09-07T13:11:35.748Z,4.64
2022-09-07T13:14:14.533Z,5.19
2022-09-07T13:20:07.599Z,5.67
2022-09-07T13:22:35.413Z,5.75
2022-09-07T13:25:22.532Z,5.39
2022-09-07T13:28:01.680Z,5.47
2022-09-07T13:30:36.286Z,5.40
2022-09-07T13:33:25.545Z,5.01
2022-09-07T13:36:03.380Z,5.11
2022-09-07T13:38:34.861Z,5.33
2022-09-07T13:41:17.884Z,5.66
2022-09-07T13:43:59.757Z,5.43
2022-09-07T13:46:57.004Z,5.53
2022-09-07T13:49:51.375Z,6.24
2022-09-07T13:52:29.325Z,5.87
2022-09-07T13:55:25.605Z,6.25
2022-09-07T13:58:15.413Z,6.30
2022-09-07T14:01:13.425Z,6.07
2022-09-07T14:03:53.224Z,6.18
2022-09-07T14:06:25.331Z,6.11
2022-09-07T14:09:04.965Z,6.25
2022-09-07T14:11:52.599Z,6.47
2022-09-07T14:14:30.259Z,6.06
2022-09-07T14:17:04.997Z,6.02
2022-09-07T14:20:02.386Z,6.55
2022-09-07T14:22:35.351Z,7.32
2022-09-07T14:25:07.478Z,7.53
2022-09-07T14:27:42.604Z,7.86
2022-09-07T14:30:28.307Z,8.12
2022-09-07T14:33:20.316Z,9.29
2022-09-07T14:35:49.679Z,9.85
2022-09-07T14:41:20.547Z,12.83
2022-09-07T14:44:03.100Z,14.17
2022-09-07T14:46:36.883Z,15.84
2022-09-07T14:49:19.849Z,16.90
2022-09-07T14:51:48.568Z,17.38
2022-09-07T14:54:28.432Z,18.92
2022-09-07T14:57:24.831Z,19.35
2022-09-07T14:59:54.805Z,20.52
2022-09-07T15:02:37.676Z,21.00
2022-09-07T15:05:30.940Z,22.69
2022-09-07T15:07:59.596Z,22.89
2022-09-07T15:10:36.894Z,23.02
2022-09-07T15:13:25.437Z,24.34
2022-09-07T15:16:02.953Z,24.70
2022-09-07T15:19:10.577Z,25.01
2022-09-07T15:21:37.831Z,25.37
2022-09-07T15:24:07.436Z,26.19
2022-09-07T15:29:32.970Z,26.90
2022-09-07T15:32:04.345Z,26.96
2022-09-07T15:34:33.271Z,27.77
2022-09-07T15:37:03.659Z,27.64
2022-09-07T15:39:31.680Z,28.59
2022-09-07T15:42:00.808Z,28.82
2022-09-07T15:44:46.360Z,28.47
2022-09-07T15:50:01.101Z,29.31
2022-09-07T15:52:31.272Z,29.42
2022-09-07T15:54:59.560Z,29.74
2022-09-07T16:00:17.099Z,31.68
2022-09-07T16:05:31.742Z,31.90
2022-09-07T16:11:04.655Z,33.32
2022-09-07T16:13:33.341Z,34.32
2022-09-07T16:16:00.580Z,35.09
2022-09-07T16:18:31.309Z,35.09
2022-09-07T16:21:11.507Z,35.47
2022-09-07T16:23:42.926Z,35.65
2022-09-07T16:26:12.180Z,36.17
2022-09-07T16:28:42.467Z,36.29
2022-09-07T16:31:26.483Z,36.59
2022-09-07T16:33:54.963Z,37.29
2022-09-07T16:36:25.286Z,37.43
2022-09-07T16:38:59.242Z,38.16
2022-09-07T16:41:31.848Z,38.19
2022-09-07T16:43:59.724Z,38.15
2022-09-07T16:46:35.018Z,39.08
2022-09-07T16:49:03.922Z,39.87
2022-09-07T16:51:31.370Z,39.95
2022-09-07T16:53:59.796Z,40.09
2022-09-07T16:56:30.587Z,40.32
2022-09-07T16:59:04.694Z,40.23
2022-09-07T17:01:38.125Z,41.43
2022-09-07T17:04:10.667Z,41.94
2022-09-07T17:06:40.448Z,42.12
2022-09-07T17:09:08.749Z,42.69
2022-09-07T17:11:37.369Z,42.33
2022-09-07T17:14:06.790Z,43.10
2022-09-07T17:16:40.987Z,42.90
2022-09-07T17:22:00.877Z,43.60
2022-09-07T17:24:31.863Z,44.43
2022-09-07T17:27:00.127Z,44.58
2022-09-07T17:29:30.550Z,45.69
2022-09-07T17:34:46.534Z,46.81
2022-09-07T17:37:14.025Z,47.51
2022-09-07T17:39:41.672Z,48.05
2022-09-07T17:42:09.863Z,48.30
2022-09-07T17:44:38.414Z,48.68
2022-09-07T17:47:06.328Z,49.64
2022-09-07T17:49:33.806Z,49.18
2022-09-07T17:52:01.830Z,49.57
2022-09-07T17:54:29.439Z,49.66
2022-09-07T17:56:56.839Z,50.33
2022-09-07T18:02:14.126Z,49.66
2022-09-07T18:04:42.765Z,50.36
2022-09-07T18:07:10.193Z,50.63
2022-09-07T18:09:37.507Z,50.79
2022-09-07T18:12:05.502Z,50.45
2022-09-07T18:14:33.074Z,50.15
2022-09-07T18:17:00.519Z,50.04
2022-09-07T18:19:28.465Z,50.79
2022-09-07T18:21:55.836Z,50.47
2022-09-07T18:24:24.833Z,50.95
2022-09-07T18:26:54.103Z,50.26
2022-09-07T18:29:29.538Z,50.55
2022-09-07T18:32:02.294Z,50.35
2022-09-07T18:34:31.910Z,50.60
2022-09-07T18:37:00.620Z,50.35
2022-09-07T18:39:29.288Z,50.49
2022-09-07T18:41:57.168Z,49.93
2022-09-07T18:47:22.174Z,50.10
2022-09-07T18:49:51.875Z,50.22
2022-09-07T18:55:10.233Z,50.39
2022-09-07T18:57:38.364Z,50.30
2022-09-07T19:00:09.186Z,51.06
2022-09-07T19:02:36.815Z,50.43
2022-09-07T19:07:52.839Z,50.40
2022-09-07T19:10:20.360Z,50.57
2022-09-07T19:12:47.725Z,50.52
2022-09-07T19:15:15.852Z,50.56
2022-09-07T19:17:43.290Z,50.27
2022-09-07T19:20:10.764Z,50.37
2022-09-07T19:22:39.064Z,50.53
2022-09-07T19:25:06.859Z,51.03
2022-09-07T19:27:34.160Z,50.59
2022-09-07T19:30:01.750Z,50.58
2022-09-07T19:32:29.669Z,50.92
2022-09-07T19:34:56.869Z,50.67
2022-09-07T19:37:26.109Z,50.31
2022-09-07T19:39:57.467Z,50.66
2022-09-07T19:42:26.593Z,50.68
2022-09-07T19:44:54.297Z,50.59
2022-09-07T19:47:22.159Z,50.07
2022-09-07T19:49:49.559Z,50.14
2022-09-07T19:52:16.836Z,50.07
2022-09-07T19:54:44.555Z,49.79
2022-09-07T19:57:11.852Z,50.23
2022-09-07T19:59:39.755Z,49.64
2022-09-07T20:02:07.256Z,50.02
2022-09-07T20:04:35.895Z,49.47
2022-09-07T20:07:04.095Z,49.28
2022-09-07T20:09:31.650Z,49.87
2022-09-07T20:12:01.882Z,49.50
2022-09-07T20:14:29.491Z,49.45
2022-09-07T20:16:58.138Z,49.80
2022-09-07T20:19:25.399Z,49.91
2022-09-07T20:21:55.872Z,50.06
2022-09-07T20:24:23.674Z,49.56
2022-09-07T20:26:51.149Z,49.43
2022-09-07T20:29:34.076Z,48.80
2022-09-07T20:32:02.197Z,48.87
2022-09-07T20:34:30.070Z,48.44
2022-09-07T20:36:57.441Z,48.38
2022-09-07T20:39:25.276Z,48.65
2022-09-07T20:41:52.683Z,48.59
2022-09-07T20:44:19.945Z,48.19
2022-09-07T20:46:47.539Z,47.86
2022-09-07T20:49:15.849Z,48.23
2022-09-07T20:51:43.348Z,47.98
2022-09-07T20:54:10.853Z,48.66
2022-09-07T20:56:38.231Z,49.06
2022-09-07T20:59:05.455Z,48.88
2022-09-07T21:01:33.448Z,49.15
2022-09-07T21:04:01.822Z,49.57
2022-09-07T21:06:31.810Z,49.43
2022-09-07T21:08:59.842Z,49.35
2022-09-07T21:11:34.468Z,49.51
2022-09-07T21:14:06.323Z,49.66
2022-09-07T21:16:35.043Z,49.96
2022-09-07T21:19:06.973Z,50.13
2022-09-07T21:21:39.083Z,50.16
2022-09-07T21:24:16.966Z,50.08
2022-09-07T21:26:44.763Z,50.08
2022-09-07T21:29:22.982Z,49.80
2022-09-07T21:31:53.466Z,49.87
2022-09-07T21:34:22.023Z,50.49
2022-09-07T21:36:49.566Z,50.75
2022-09-07T21:39:17.244Z,50.69
2022-09-07T21:41:45.647Z,51.14
2022-09-07T21:44:16.287Z,50.93
2022-09-07T21:46:44.452Z,50.72
2022-09-07T21:49:12.453Z,51.24
2022-09-07T21:51:39.895Z,51.09
2022-09-07T21:54:07.393Z,50.99
2022-09-07T21:56:34.934Z,50.87
2022-09-07T21:59:02.770Z,50.80
2022-09-07T22:01:31.574Z,50.58
2022-09-07T22:04:07.140Z,51.07
2022-09-07T22:06:35.734Z,51.71
2022-09-07T22:09:05.148Z,51.63
2022-09-07T22:11:32.735Z,51.67
2022-09-07T22:14:03.384Z,52.01
2022-09-07T22:16:33.212Z,52.15
2022-09-07T22:19:01.286Z,51.99
2022-09-07T22:21:30.782Z,52.10
2022-09-07T22:24:01.914Z,51.87
2022-09-07T22:26:33.218Z,51.75
2022-09-07T22:29:00.979Z,51.68
2022-09-07T22:31:33.618Z,51.87
2022-09-07T22:34:03.939Z,51.93
2022-09-07T22:36:35.334Z,51.62
2022-09-07T22:39:07.569Z,52.03
2022-09-07T22:41:38.335Z,52.76
2022-09-07T22:44:08.303Z,52.62
2022-09-07T22:46:39.929Z,52.55
2022-09-07T22:49:08.109Z,52.66
2022-09-07T22:51:35.484Z,52.55
2022-09-07T22:54:03.574Z,52.45
2022-09-07T22:56:33.931Z,52.89
2022-09-07T22:59:07.527Z,52.86
2022-09-07T23:01:36.582Z,52.52
2022-09-07T23:04:05.397Z,53.02
2022-09-07T23:06:39.196Z,52.95
2022-09-07T23:09:16.666Z,53.12
2022-09-07T23:11:46.167Z,52.99
2022-09-07T23:14:21.935Z,53.13
2022-09-07T23:16:50.602Z,53.19
2022-09-07T23:19:20.455Z,53.69
2022-09-07T23:21:47.854Z,54.05
2022-09-07T23:24:18.790Z,54.61
2022-09-07T23:26:47.114Z,54.57
2022-09-07T23:29:15.918Z,54.05
2022-09-07T23:31:45.499Z,54.19
2022-09-07T23:34:13.047Z,54.32
2022-09-07T23:36:40.318Z,54.26
2022-09-07T23:39:07.576Z,53.91
2022-09-07T23:41:34.932Z,53.97
2022-09-07T23:44:02.390Z,54.31
2022-09-07T23:46:29.847Z,54.51
2022-09-07T23:48:57.383Z,54.36
2022-09-07T23:51:24.978Z,55.02
2022-09-07T23:53:53.461Z,55.04
2022-09-07T23:56:24.603Z,55.29
2022-09-07T23:58:52.389Z,55.21
